TAF KSLC
AMD KSLC 080241Z 0803/0906 15005KT P6SM FEW100 FEW200 FM081500 17010KT P6SM SCT070 BKN090 FM081900 17012G22KT P6SM OVC050 FM090000 15010KT P6SM VCSH OVC040=
METAR KSLC
WC KSLC
WS KSLC
WV KSLC